createdAt,value
2018-09-02T00:02:18.456Z,5.62
2018-09-02T00:04:46.070Z,5.90
2018-09-02T00:07:13.751Z,6.70
2018-09-02T00:09:41.466Z,6.10
2018-09-02T00:12:09.078Z,5.53
2018-09-02T00:14:36.698Z,7.23
2018-09-02T00:17:04.388Z,6.70
2018-09-02T00:19:32.004Z,7.10
2018-09-02T00:21:59.656Z,7.33
2018-09-02T00:24:27.302Z,7.00
2018-09-02T00:26:54.951Z,7.08
2018-09-02T00:29:22.597Z,7.43
2018-09-02T00:31:50.319Z,7.30
2018-09-02T00:34:17.907Z,8.30
2018-09-02T00:36:45.526Z,7.80
2018-09-02T00:39:13.185Z,8.77
2018-09-02T00:41:40.776Z,7.50
2018-09-02T00:44:08.744Z,8.28
2018-09-02T00:46:36.442Z,8.87
2018-09-02T00:49:04.308Z,8.00
2018-09-02T00:51:31.967Z,7.87
2018-09-02T00:53:59.729Z,8.30
2018-09-02T00:56:27.424Z,7.60
2018-09-02T00:58:55.087Z,8.13
2018-09-02T01:01:22.716Z,7.23
2018-09-02T01:03:50.411Z,7.00
2018-09-02T01:06:18.090Z,7.90
2018-09-02T01:08:45.737Z,7.03
2018-09-02T01:11:13.380Z,7.22
2018-09-02T01:13:41.000Z,7.97
2018-09-02T01:16:08.713Z,7.97
2018-09-02T01:18:36.364Z,6.97
2018-09-02T01:21:04.012Z,7.13
2018-09-02T01:23:31.661Z,7.55
2018-09-02T01:25:59.301Z,7.97
2018-09-02T01:28:26.925Z,7.30
2018-09-02T01:30:54.590Z,7.73
2018-09-02T01:33:22.201Z,6.85
2018-09-02T01:35:49.886Z,7.07
2018-09-02T01:38:17.523Z,6.93
2018-09-02T01:40:45.142Z,8.45
2018-09-02T01:43:12.739Z,7.90
2018-09-02T01:45:40.380Z,7.90
2018-09-02T01:48:08.004Z,8.37
2018-09-02T01:50:35.619Z,8.58
2018-09-02T01:53:03.317Z,9.67
2018-09-02T01:55:30.952Z,8.63
2018-09-02T01:57:58.575Z,8.97
2018-09-02T02:00:26.263Z,9.73
2018-09-02T02:02:53.876Z,9.05
2018-09-02T02:05:21.553Z,8.80
2018-09-02T02:07:49.275Z,10.23
2018-09-02T02:10:16.915Z,9.58
2018-09-02T02:12:44.520Z,9.58
2018-09-02T02:15:12.169Z,10.00
2018-09-02T02:17:39.807Z,9.60
2018-09-02T02:20:07.550Z,9.33
2018-09-02T02:22:35.195Z,8.98
2018-09-02T02:25:02.990Z,9.40
2018-09-02T02:27:30.665Z,9.97
2018-09-02T02:29:58.632Z,9.73
2018-09-02T02:32:26.280Z,9.63
2018-09-02T02:34:53.899Z,9.07
2018-09-02T02:37:21.590Z,8.77
2018-09-02T02:39:49.220Z,9.48
2018-09-02T02:42:16.835Z,9.17
2018-09-02T02:44:44.495Z,9.23
2018-09-02T02:47:12.155Z,9.33
2018-09-02T02:49:39.795Z,9.33
2018-09-02T02:52:07.506Z,10.03
2018-09-02T02:54:35.170Z,9.70
2018-09-02T02:57:02.808Z,10.13
2018-09-02T02:59:30.467Z,9.38
2018-09-02T03:01:58.111Z,9.50
2018-09-02T03:04:25.734Z,9.23
2018-09-02T03:06:53.421Z,10.23
2018-09-02T03:09:21.110Z,9.45
2018-09-02T03:11:48.819Z,10.03
2018-09-02T03:14:16.500Z,9.80
2018-09-02T03:16:44.125Z,9.43
2018-09-02T03:19:11.766Z,9.77
2018-09-02T03:21:39.447Z,9.23
2018-09-02T03:24:07.179Z,9.13
2018-09-02T03:26:34.816Z,10.00
2018-09-02T03:29:02.495Z,10.50
2018-09-02T03:31:30.117Z,10.40
2018-09-02T03:33:57.752Z,9.60
2018-09-02T03:36:25.484Z,9.40
2018-09-02T03:38:53.097Z,9.80
2018-09-02T03:41:20.717Z,8.98
2018-09-02T03:43:48.435Z,9.17
2018-09-02T03:46:16.066Z,10.67
2018-09-02T03:48:43.764Z,9.13
2018-09-02T03:51:11.452Z,9.88
2018-09-02T03:53:39.056Z,9.30
2018-09-02T03:56:06.739Z,9.03
2018-09-02T03:58:34.484Z,8.13
2018-09-02T04:01:02.212Z,8.83
2018-09-02T04:03:29.859Z,9.25
2018-09-02T04:05:57.598Z,10.63
2018-09-02T04:08:25.223Z,9.27
2018-09-02T04:10:52.820Z,8.63
2018-09-02T04:13:20.501Z,9.98
2018-09-02T04:15:48.171Z,8.83
2018-09-02T04:18:15.843Z,9.67
2018-09-02T04:20:43.536Z,8.75
2018-09-02T04:23:11.202Z,9.73
2018-09-02T04:25:38.836Z,9.83
2018-09-02T04:28:06.504Z,10.07
2018-09-02T04:30:34.134Z,10.13
2018-09-02T04:33:01.771Z,9.35
2018-09-02T04:35:29.438Z,10.10
2018-09-02T04:37:57.052Z,10.37
2018-09-02T04:40:24.690Z,9.77
2018-09-02T04:42:52.409Z,10.30
2018-09-02T04:45:20.172Z,11.37
2018-09-02T04:47:47.798Z,11.63
2018-09-02T04:50:17.589Z,10.40
2018-09-02T04:52:45.195Z,11.00
2018-09-02T04:55:12.846Z,10.23
2018-09-02T04:57:41.264Z,10.50
2018-09-02T05:00:08.946Z,9.70
2018-09-02T05:02:36.552Z,9.67
2018-09-02T05:05:04.378Z,9.13
2018-09-02T05:07:32.341Z,9.30
2018-09-02T05:09:59.997Z,8.60
2018-09-02T05:12:27.620Z,8.13
2018-09-02T05:14:55.517Z,7.87
2018-09-02T05:17:25.297Z,8.40
2018-09-02T05:19:52.979Z,7.30
2018-09-02T05:22:20.739Z,6.87
2018-09-02T05:24:48.526Z,7.05
2018-09-02T05:27:16.393Z,6.67
2018-09-02T05:29:44.007Z,6.22
2018-09-02T05:32:11.603Z,6.87
2018-09-02T05:34:39.219Z,6.40
2018-09-02T05:37:07.023Z,6.70
2018-09-02T05:39:34.619Z,6.60
2018-09-02T05:42:02.257Z,6.75
2018-09-02T05:44:29.911Z,6.70
2018-09-02T05:46:57.495Z,9.50
2018-09-02T05:49:25.137Z,6.47
2018-09-02T05:51:52.752Z,8.18
2018-09-02T05:54:20.346Z,5.90
2018-09-02T05:56:47.990Z,5.85
2018-09-02T05:59:15.627Z,5.90
2018-09-02T06:01:43.235Z,6.70
2018-09-02T06:04:10.864Z,6.10
2018-09-02T06:06:38.444Z,6.60
2018-09-02T06:09:06.668Z,7.05
2018-09-02T06:11:34.280Z,6.60
2018-09-02T06:14:01.925Z,7.15
2018-09-02T06:16:29.507Z,7.10
2018-09-02T06:18:57.140Z,7.17
2018-09-02T06:21:24.755Z,6.57
2018-09-02T06:23:52.420Z,6.93
2018-09-02T06:26:20.068Z,7.17
2018-09-02T06:28:47.700Z,6.07
2018-09-02T06:31:15.319Z,7.97
2018-09-02T06:33:42.961Z,16.32
2018-09-02T06:36:10.645Z,7.27
2018-09-02T06:38:38.227Z,6.30
2018-09-02T06:41:06.175Z,5.90
2018-09-02T06:43:33.784Z,5.03
2018-09-02T06:46:01.439Z,5.42
2018-09-02T06:48:29.162Z,5.30
2018-09-02T06:50:56.787Z,5.43
2018-09-02T06:53:24.406Z,4.83
2018-09-02T06:55:52.056Z,4.73
2018-09-02T06:58:19.747Z,5.00
2018-09-02T07:00:47.366Z,5.37
2018-09-02T07:03:15.095Z,5.73
2018-09-02T07:05:42.756Z,5.50
2018-09-02T07:08:11.552Z,5.35
2018-09-02T07:10:39.746Z,6.00
2018-09-02T07:13:07.362Z,5.80
2018-09-02T07:15:34.993Z,6.20
2018-09-02T07:18:02.836Z,5.60
2018-09-02T07:20:30.691Z,6.33
2018-09-02T07:22:58.313Z,6.10
2018-09-02T07:25:25.999Z,6.07
2018-09-02T07:27:53.778Z,5.80
2018-09-02T07:30:21.388Z,6.43
2018-09-02T07:32:48.999Z,6.50
2018-09-02T07:35:16.610Z,6.53
2018-09-02T07:37:44.338Z,7.13
2018-09-02T07:40:12.000Z,6.83
2018-09-02T07:42:39.671Z,8.23
2018-09-02T07:45:08.075Z,19.10
2018-09-02T07:47:35.941Z,9.75
2018-09-02T07:50:03.622Z,6.20
2018-09-02T07:52:31.236Z,6.40
2018-09-02T07:54:58.874Z,5.83
2018-09-02T07:57:26.448Z,6.23
2018-09-02T07:59:54.103Z,6.03
2018-09-02T08:02:21.842Z,5.37
2018-09-02T08:04:49.475Z,5.20
2018-09-02T08:07:17.084Z,5.58
2018-09-02T08:09:44.739Z,5.40
2018-09-02T08:12:12.677Z,4.77
2018-09-02T08:14:40.265Z,4.50
2018-09-02T08:17:07.916Z,4.73
2018-09-02T08:19:35.534Z,4.93
2018-09-02T08:22:03.296Z,4.75
2018-09-02T08:24:30.973Z,4.78
2018-09-02T08:26:58.599Z,4.62
2018-09-02T08:29:26.602Z,4.60
2018-09-02T08:31:54.370Z,4.30
2018-09-02T08:34:22.076Z,3.97
2018-09-02T08:36:49.711Z,3.93
2018-09-02T08:39:17.369Z,3.50
2018-09-02T08:41:45.084Z,3.90
2018-09-02T08:44:12.711Z,3.80
2018-09-02T08:46:40.388Z,3.87
2018-09-02T08:49:08.191Z,3.40
2018-09-02T08:51:35.797Z,3.40
2018-09-02T08:54:03.587Z,3.27
2018-09-02T08:56:31.207Z,3.20
2018-09-02T08:58:58.857Z,3.27
2018-09-02T09:01:26.551Z,3.30
2018-09-02T09:03:54.167Z,3.43
2018-09-02T09:06:22.303Z,3.70
2018-09-02T09:08:50.166Z,3.87
2018-09-02T09:11:17.672Z,4.17
2018-09-02T09:13:45.298Z,3.77
2018-09-02T09:16:12.986Z,4.20
2018-09-02T09:18:40.599Z,4.60
2018-09-02T09:21:08.201Z,4.83
2018-09-02T09:23:35.881Z,4.77
2018-09-02T09:26:03.551Z,6.15
2018-09-02T09:28:31.140Z,5.43
2018-09-02T09:30:58.815Z,5.33
2018-09-02T09:33:26.479Z,6.05
2018-09-02T09:35:54.108Z,7.30
2018-09-02T09:38:21.786Z,7.60
2018-09-02T09:40:49.407Z,7.30
2018-09-02T09:43:17.009Z,7.80
2018-09-02T09:45:44.627Z,8.05
2018-09-02T09:48:12.216Z,8.50
2018-09-02T09:50:39.880Z,10.10
2018-09-02T09:53:07.560Z,9.43
2018-09-02T09:55:35.195Z,14.10
2018-09-02T09:58:03.026Z,15.43
2018-09-02T10:01:03.280Z,12.53
2018-09-02T10:03:30.917Z,12.20
2018-09-02T10:05:58.519Z,12.60
2018-09-02T10:08:26.115Z,12.20
2018-09-02T10:10:53.733Z,13.17
2018-09-02T10:13:21.323Z,13.97
2018-09-02T10:15:48.950Z,14.40
2018-09-02T10:18:16.609Z,15.10
2018-09-02T10:20:44.200Z,15.13
2018-09-02T10:23:11.832Z,15.97
2018-09-02T10:25:39.598Z,16.50
2018-09-02T10:28:07.294Z,17.00
2018-09-02T10:30:35.026Z,15.80
2018-09-02T10:33:02.714Z,17.93
2018-09-02T10:35:30.311Z,18.00
2018-09-02T10:37:58.046Z,17.25
2018-09-02T10:40:25.651Z,18.33
2018-09-02T10:42:53.267Z,18.87
2018-09-02T10:45:21.021Z,18.60
2018-09-02T10:47:48.646Z,19.03
2018-09-02T10:50:16.270Z,18.80
2018-09-02T10:52:43.919Z,18.93
2018-09-02T10:55:11.511Z,18.87
2018-09-02T10:57:39.137Z,19.07
2018-09-02T11:00:08.500Z,18.12
2018-09-02T11:02:36.196Z,19.03
2018-09-02T11:05:03.890Z,19.13
2018-09-02T11:07:31.527Z,18.65
2018-09-02T11:09:59.147Z,18.00
2018-09-02T11:12:26.723Z,18.13
2018-09-02T11:14:54.346Z,17.33
2018-09-02T11:17:21.963Z,19.32
2018-09-02T11:19:49.559Z,19.37
2018-09-02T11:22:17.205Z,18.53
2018-09-02T11:24:44.818Z,18.57
2018-09-02T11:27:12.451Z,19.90
2018-09-02T11:29:40.167Z,19.33
2018-09-02T11:32:07.771Z,18.53
2018-09-02T11:34:35.351Z,19.67
2018-09-02T11:37:02.999Z,19.90
2018-09-02T11:39:30.701Z,19.97
2018-09-02T11:41:58.314Z,20.03
2018-09-02T11:44:25.982Z,18.73
2018-09-02T11:46:53.796Z,19.70
2018-09-02T11:49:21.403Z,22.05
2018-09-02T11:51:49.073Z,20.30
2018-09-02T11:54:16.780Z,20.40
2018-09-02T11:56:44.430Z,20.17
2018-09-02T11:59:12.091Z,19.42
2018-09-02T12:01:39.826Z,20.90
2018-09-02T12:04:07.649Z,20.17
2018-09-02T12:06:35.472Z,22.30
2018-09-02T12:09:04.502Z,19.90
2018-09-02T12:11:32.177Z,20.00
2018-09-02T12:13:59.919Z,19.47
2018-09-02T12:16:27.481Z,20.43
2018-09-02T12:18:55.127Z,19.90
2018-09-02T12:21:22.804Z,20.13
2018-09-02T12:23:50.446Z,18.70
2018-09-02T12:26:18.089Z,18.37
2018-09-02T12:28:45.760Z,20.60
2018-09-02T12:31:13.379Z,21.90
2018-09-02T12:33:41.044Z,25.97
2018-09-02T12:36:08.858Z,21.97
2018-09-02T12:38:36.881Z,21.07
2018-09-02T12:41:04.664Z,21.27
2018-09-02T12:43:32.381Z,21.43
2018-09-02T12:46:00.108Z,21.80
2018-09-02T12:48:27.927Z,20.77
2018-09-02T12:50:56.192Z,21.33
2018-09-02T12:53:23.868Z,21.27
2018-09-02T12:55:51.605Z,22.20
2018-09-02T12:58:19.304Z,21.65
2018-09-02T13:00:46.950Z,22.65
2018-09-02T13:03:14.584Z,20.97
2018-09-02T13:05:42.240Z,20.33
2018-09-02T13:08:09.869Z,22.63
2018-09-02T13:10:37.584Z,21.68
2018-09-02T13:13:05.499Z,22.07
2018-09-02T13:15:33.190Z,23.73
2018-09-02T13:18:00.854Z,21.90
2018-09-02T13:20:28.541Z,23.83
2018-09-02T13:22:56.199Z,22.67
2018-09-02T13:25:23.928Z,22.58
2018-09-02T13:27:51.637Z,24.10
2018-09-02T13:30:19.271Z,25.07
2018-09-02T13:32:46.930Z,24.02
2018-09-02T13:35:14.602Z,23.83
2018-09-02T13:37:42.237Z,25.63
2018-09-02T13:40:09.941Z,23.90
2018-09-02T13:42:37.729Z,24.70
2018-09-02T13:45:05.857Z,24.30
2018-09-02T13:47:33.613Z,25.03
2018-09-02T13:50:01.265Z,24.73
2018-09-02T13:52:28.913Z,24.85
2018-09-02T13:54:56.545Z,24.00
2018-09-02T13:57:24.265Z,24.83
2018-09-02T13:59:52.119Z,25.03
2018-09-02T14:02:19.704Z,25.80
2018-09-02T14:04:47.415Z,25.77
2018-09-02T14:07:15.064Z,25.85
2018-09-02T14:09:42.695Z,26.23
2018-09-02T14:12:10.383Z,26.07
2018-09-02T14:14:38.029Z,25.43
2018-09-02T14:17:05.694Z,26.57
2018-09-02T14:19:33.377Z,26.33
2018-09-02T14:22:01.033Z,26.87
2018-09-02T14:24:28.682Z,26.10
2018-09-02T14:26:56.347Z,25.15
2018-09-02T14:29:24.084Z,24.67
2018-09-02T14:31:51.745Z,24.20
2018-09-02T14:34:19.391Z,24.70
2018-09-02T14:36:47.081Z,26.57
2018-09-02T14:39:14.740Z,24.70
2018-09-02T14:41:42.723Z,26.00
2018-09-02T14:44:10.396Z,25.20
2018-09-02T14:46:38.583Z,24.60
2018-09-02T14:49:06.483Z,24.33
2018-09-02T14:51:34.120Z,24.43
2018-09-02T14:54:01.760Z,22.57
2018-09-02T14:56:29.457Z,23.75
2018-09-02T14:58:57.052Z,23.57
2018-09-02T15:01:24.788Z,23.57
2018-09-02T15:03:52.501Z,24.90
2018-09-02T15:06:20.215Z,22.83
2018-09-02T15:08:47.850Z,23.62
2018-09-02T15:11:15.556Z,23.83
2018-09-02T15:13:43.280Z,22.33
2018-09-02T15:16:11.320Z,22.77
2018-09-02T15:18:39.136Z,23.50
2018-09-02T15:21:07.340Z,24.77
2018-09-02T15:23:34.972Z,23.95
2018-09-02T15:26:03.522Z,23.10
2018-09-02T15:28:31.303Z,23.93
2018-09-02T15:30:59.332Z,23.37
2018-09-02T15:33:28.098Z,23.87
2018-09-02T15:35:55.875Z,23.60
2018-09-02T15:38:23.554Z,24.93
2018-09-02T15:40:51.410Z,23.30
2018-09-02T15:43:20.023Z,24.50
2018-09-02T15:45:47.827Z,23.33
2018-09-02T15:48:15.625Z,24.47
2018-09-02T15:50:43.515Z,23.43
2018-09-02T15:53:11.313Z,23.97
2018-09-02T15:55:39.242Z,23.20
2018-09-02T15:58:07.266Z,23.33
2018-09-02T16:00:35.010Z,22.50
2018-09-02T16:03:02.977Z,21.30
2018-09-02T16:05:30.998Z,23.43
2018-09-02T16:07:58.766Z,22.43
2018-09-02T16:10:26.561Z,22.63
2018-09-02T16:12:54.388Z,21.10
2018-09-02T16:15:22.169Z,22.87
2018-09-02T16:17:50.010Z,21.40
2018-09-02T16:20:17.749Z,23.35
2018-09-02T16:22:45.360Z,37.45
2018-09-02T16:25:13.106Z,139.80
2018-09-02T16:27:40.742Z,33.90
2018-09-02T16:30:08.456Z,29.13
2018-09-02T16:32:36.281Z,25.53
2018-09-02T16:35:04.039Z,22.85
2018-09-02T16:37:31.794Z,24.40
2018-09-02T16:39:59.602Z,23.02
2018-09-02T16:42:27.912Z,23.10
2018-09-02T16:44:57.756Z,23.67
2018-09-02T16:47:25.444Z,27.23
2018-09-02T16:49:53.274Z,23.77
2018-09-02T16:52:21.047Z,23.85
2018-09-02T16:54:49.184Z,23.35
2018-09-02T16:57:18.062Z,22.83
2018-09-02T16:59:46.594Z,23.73
2018-09-02T17:02:14.344Z,22.20
2018-09-02T17:04:44.711Z,23.43
2018-09-02T17:07:12.598Z,29.60
2018-09-02T17:09:40.485Z,27.30
2018-09-02T17:12:09.309Z,26.23
2018-09-02T17:14:44.784Z,26.80
2018-09-02T17:17:12.436Z,39.23
2018-09-02T17:19:42.773Z,30.93
2018-09-02T17:22:10.470Z,25.93
2018-09-02T17:24:38.357Z,25.13
2018-09-02T17:27:06.091Z,36.30
2018-09-02T17:29:34.489Z,27.87
2018-09-02T17:32:06.034Z,25.20
2018-09-02T17:34:33.870Z,23.73
2018-09-02T17:37:01.676Z,23.50
2018-09-02T17:39:29.358Z,23.13
2018-09-02T17:41:57.488Z,23.57
2018-09-02T17:44:25.245Z,24.07
2018-09-02T17:46:53.150Z,24.17
2018-09-02T17:49:20.801Z,23.97
2018-09-02T17:51:48.490Z,23.07
2018-09-02T17:54:16.286Z,23.52
2018-09-02T17:56:44.083Z,22.70
2018-09-02T17:59:11.834Z,22.87
2018-09-02T18:01:39.644Z,22.53
2018-09-02T18:04:07.284Z,23.70
2018-09-02T18:06:35.050Z,22.30
2018-09-02T18:09:04.623Z,22.47
2018-09-02T18:11:32.304Z,23.07
2018-09-02T18:13:59.983Z,25.60
2018-09-02T18:16:27.796Z,23.10
2018-09-02T18:18:56.312Z,23.57
2018-09-02T18:21:23.989Z,24.13
2018-09-02T18:23:51.755Z,24.33
2018-09-02T18:26:19.469Z,24.18
2018-09-02T18:28:47.965Z,22.42
2018-09-02T18:31:15.716Z,23.87
2018-09-02T18:33:43.479Z,22.00
2018-09-02T18:36:11.399Z,22.77
2018-09-02T18:38:39.052Z,21.03
2018-09-02T18:41:06.755Z,23.55
2018-09-02T18:43:34.584Z,23.02
2018-09-02T18:46:02.472Z,21.35
2018-09-02T18:48:30.155Z,23.50
2018-09-02T18:50:57.875Z,22.50
2018-09-02T18:53:27.636Z,23.40
2018-09-02T18:55:55.760Z,24.07
2018-09-02T18:58:23.549Z,23.40
2018-09-02T19:00:51.911Z,23.57
2018-09-02T19:03:19.625Z,22.60
2018-09-02T19:05:47.301Z,22.60
2018-09-02T19:08:15.533Z,23.32
2018-09-02T19:10:43.220Z,23.07
2018-09-02T19:13:11.056Z,22.30
2018-09-02T19:15:38.832Z,22.23
2018-09-02T19:18:06.842Z,22.17
2018-09-02T19:20:34.480Z,24.00
2018-09-02T19:23:02.293Z,21.82
2018-09-02T19:25:30.008Z,23.62
2018-09-02T19:27:57.688Z,23.13
2018-09-02T19:30:25.321Z,22.60
2018-09-02T19:32:52.977Z,22.83
2018-09-02T19:35:20.647Z,23.93
2018-09-02T19:37:48.325Z,22.42
2018-09-02T19:40:15.957Z,23.07
2018-09-02T19:42:43.754Z,23.93
2018-09-02T19:45:11.384Z,25.47
2018-09-02T19:47:39.127Z,25.53
2018-09-02T19:50:07.081Z,25.40
2018-09-02T19:52:34.744Z,23.33
2018-09-02T19:55:02.372Z,23.38
2018-09-02T19:57:29.988Z,24.63
2018-09-02T19:59:57.664Z,25.25
2018-09-02T20:02:25.307Z,26.30
2018-09-02T20:04:52.973Z,23.97
2018-09-02T20:07:20.625Z,25.90
2018-09-02T20:09:48.275Z,26.13
2018-09-02T20:12:15.972Z,26.05
2018-09-02T20:14:43.612Z,27.15
2018-09-02T20:17:11.243Z,26.30
2018-09-02T20:19:38.867Z,26.27
2018-09-02T20:22:08.719Z,26.63
2018-09-02T20:24:36.410Z,26.07
2018-09-02T20:27:04.056Z,24.27
2018-09-02T20:29:31.703Z,26.80
2018-09-02T20:31:59.375Z,26.37
2018-09-02T20:34:26.972Z,26.17
2018-09-02T20:36:54.693Z,25.67
2018-09-02T20:39:22.335Z,27.40
2018-09-02T20:41:49.924Z,28.50
2018-09-02T20:44:17.573Z,27.40
2018-09-02T20:46:45.184Z,28.23
2018-09-02T20:49:12.802Z,26.37
2018-09-02T20:51:40.472Z,27.97
2018-09-02T20:54:08.076Z,25.87
2018-09-02T20:56:35.699Z,28.65
2018-09-02T20:59:03.376Z,28.07
2018-09-02T21:01:31.009Z,29.83
2018-09-02T21:03:58.684Z,30.83
2018-09-02T21:06:26.376Z,28.75
2018-09-02T21:08:54.060Z,27.87
2018-09-02T21:11:21.713Z,27.17
2018-09-02T21:13:49.380Z,28.17
2018-09-02T21:16:17.023Z,26.97
2018-09-02T21:18:44.628Z,27.90
2018-09-02T21:21:12.307Z,28.20
2018-09-02T21:23:39.916Z,29.83
2018-09-02T21:26:07.540Z,28.38
2018-09-02T21:28:35.203Z,29.03
2018-09-02T21:31:02.856Z,29.60
2018-09-02T21:33:30.479Z,28.83
2018-09-02T21:35:58.095Z,29.60
2018-09-02T21:38:25.749Z,30.70
2018-09-02T21:40:53.356Z,28.83
2018-09-02T21:43:20.985Z,29.00
2018-09-02T21:45:48.607Z,29.60
2018-09-02T21:48:16.239Z,29.17
2018-09-02T21:50:44.059Z,28.80
2018-09-02T21:53:11.939Z,27.73
2018-09-02T21:55:39.583Z,29.70
2018-09-02T21:58:07.255Z,29.15
2018-09-02T22:00:34.897Z,28.57
2018-09-02T22:03:02.518Z,29.57
2018-09-02T22:05:30.237Z,30.67
2018-09-02T22:07:57.880Z,29.48
2018-09-02T22:10:25.524Z,28.05
2018-09-02T22:12:53.181Z,27.23
2018-09-02T22:15:20.856Z,27.10
2018-09-02T22:17:48.504Z,28.30
2018-09-02T22:20:16.145Z,28.40
2018-09-02T22:22:43.796Z,31.67
2018-09-02T22:25:11.473Z,28.33
2018-09-02T22:27:39.252Z,28.87
2018-09-02T22:30:07.831Z,27.95
2018-09-02T22:32:35.465Z,30.50
2018-09-02T22:35:03.158Z,30.07
2018-09-02T22:37:30.803Z,29.18
2018-09-02T22:39:58.431Z,29.37
2018-09-02T22:42:26.072Z,30.50
2018-09-02T22:44:53.664Z,31.03
2018-09-02T22:47:21.269Z,29.75
2018-09-02T22:49:50.003Z,29.93
2018-09-02T22:52:17.629Z,31.53
2018-09-02T22:54:45.225Z,31.83
2018-09-02T22:57:12.884Z,30.67
2018-09-02T22:59:40.666Z,30.32
2018-09-02T23:02:08.521Z,29.95
2018-09-02T23:04:36.182Z,29.05
2018-09-02T23:07:03.816Z,28.77
2018-09-02T23:09:31.439Z,30.33
2018-09-02T23:11:59.144Z,30.00
2018-09-02T23:14:26.768Z,29.85
2018-09-02T23:16:55.388Z,30.73
2018-09-02T23:19:23.099Z,29.60
2018-09-02T23:21:50.746Z,30.32
2018-09-02T23:24:18.472Z,31.03
2018-09-02T23:26:46.148Z,31.33
2018-09-02T23:29:13.780Z,32.93
2018-09-02T23:31:41.368Z,34.03
2018-09-02T23:34:09.009Z,31.25
2018-09-02T23:36:36.635Z,32.63
2018-09-02T23:39:06.877Z,32.40
2018-09-02T23:41:34.511Z,33.60
2018-09-02T23:44:02.178Z,31.60
2018-09-02T23:46:29.776Z,31.55
2018-09-02T23:48:57.419Z,32.63
2018-09-02T23:51:25.048Z,33.73
2018-09-02T23:53:52.687Z,31.90
2018-09-02T23:56:20.336Z,32.25
2018-09-02T23:58:47.998Z,32.20
